createdAt,value
2019-01-27T00:00:25.080Z,46.50
2019-01-27T00:02:57.825Z,47.67
2019-01-27T00:05:31.901Z,46.03
2019-01-27T00:08:03.162Z,47.50
2019-01-27T00:10:34.350Z,47.50
2019-01-27T00:13:06.028Z,47.20
2019-01-27T00:15:37.592Z,46.90
2019-01-27T00:18:08.860Z,48.13
2019-01-27T00:20:40.078Z,47.27
2019-01-27T00:23:11.050Z,46.80
2019-01-27T00:25:43.058Z,48.47
2019-01-27T00:28:14.345Z,48.30
2019-01-27T00:30:45.849Z,48.50
2019-01-27T00:33:18.032Z,47.77
2019-01-27T00:35:49.398Z,48.23
2019-01-27T00:38:21.533Z,48.63
2019-01-27T00:40:52.947Z,48.17
2019-01-27T00:43:24.325Z,47.40
2019-01-27T00:45:56.072Z,48.87
2019-01-27T00:48:27.794Z,48.37
2019-01-27T00:51:00.488Z,45.37
2019-01-27T00:53:31.826Z,47.83
2019-01-27T00:56:04.376Z,48.13
2019-01-27T00:58:35.517Z,48.33
2019-01-27T01:01:07.609Z,46.97
2019-01-27T01:03:38.887Z,47.10
2019-01-27T01:06:10.287Z,45.03
2019-01-27T01:08:42.472Z,47.00
2019-01-27T01:11:13.918Z,47.93
2019-01-27T01:13:45.180Z,48.03
2019-01-27T01:16:16.169Z,45.47
2019-01-27T01:18:48.038Z,47.27
2019-01-27T01:21:19.753Z,48.57
2019-01-27T01:23:50.915Z,50.57
2019-01-27T01:26:22.020Z,46.57
2019-01-27T01:28:53.192Z,46.43
2019-01-27T01:31:24.275Z,48.13
2019-01-27T01:33:55.404Z,49.00
2019-01-27T01:36:28.979Z,47.40
2019-01-27T01:39:00.119Z,47.30
2019-01-27T01:41:31.199Z,48.20
2019-01-27T01:44:02.467Z,48.87
2019-01-27T01:46:33.574Z,47.87
2019-01-27T01:49:05.020Z,48.40
2019-01-27T01:51:36.236Z,47.40
2019-01-27T01:54:07.236Z,47.07
2019-01-27T01:56:38.325Z,48.27
2019-01-27T01:59:10.023Z,49.00
2019-01-27T02:01:42.345Z,47.00
2019-01-27T02:04:13.542Z,46.50
2019-01-27T02:06:44.708Z,41.53
2019-01-27T02:09:16.128Z,44.37
2019-01-27T02:11:47.230Z,40.37
2019-01-27T02:14:18.699Z,42.80
2019-01-27T02:16:51.675Z,43.63
2019-01-27T02:19:22.795Z,47.50
2019-01-27T02:21:53.963Z,47.73
2019-01-27T02:24:25.091Z,48.17
2019-01-27T02:26:56.620Z,45.57
2019-01-27T02:29:27.908Z,46.77
2019-01-27T02:31:59.106Z,46.60
2019-01-27T02:34:30.731Z,48.30
2019-01-27T02:37:03.589Z,48.77
2019-01-27T02:39:35.187Z,51.20
2019-01-27T02:42:08.560Z,49.60
2019-01-27T02:44:39.914Z,53.40
2019-01-27T02:47:11.172Z,50.70
2019-01-27T02:49:42.491Z,49.87
2019-01-27T02:52:13.713Z,48.57
2019-01-27T02:54:46.903Z,49.43
2019-01-27T02:57:18.341Z,49.83
2019-01-27T02:59:50.589Z,50.97
2019-01-27T03:02:23.233Z,46.93
2019-01-27T03:04:56.596Z,49.90
2019-01-27T03:07:36.862Z,48.93
2019-01-27T03:10:12.124Z,48.37
2019-01-27T03:12:43.645Z,51.87
2019-01-27T03:15:16.578Z,50.47
2019-01-27T03:17:47.721Z,49.43
2019-01-27T03:20:20.431Z,50.30
2019-01-27T03:22:53.931Z,52.13
2019-01-27T03:25:25.370Z,49.00
2019-01-27T03:27:56.759Z,49.27
2019-01-27T03:30:28.024Z,50.13
2019-01-27T03:32:59.064Z,46.67
2019-01-27T03:35:30.113Z,51.37
2019-01-27T03:38:01.079Z,52.43
2019-01-27T03:40:32.195Z,55.27
2019-01-27T03:43:04.857Z,51.60
2019-01-27T03:45:36.081Z,58.00
2019-01-27T03:48:08.208Z,54.93
2019-01-27T03:50:40.362Z,59.53
2019-01-27T03:53:13.269Z,58.20
2019-01-27T03:55:44.439Z,55.80
2019-01-27T03:58:15.564Z,56.30
2019-01-27T04:00:46.901Z,50.87
2019-01-27T04:03:18.319Z,49.40
2019-01-27T04:05:50.752Z,52.77
2019-01-27T04:08:21.864Z,52.20
2019-01-27T04:10:52.990Z,48.47
2019-01-27T04:13:25.504Z,49.37
2019-01-27T04:15:57.194Z,47.03
2019-01-27T04:18:28.413Z,48.60
2019-01-27T04:20:59.837Z,48.27
2019-01-27T04:23:31.712Z,48.27
2019-01-27T04:26:03.217Z,47.97
2019-01-27T04:28:34.348Z,51.33
2019-01-27T04:31:05.768Z,54.17
2019-01-27T04:33:37.806Z,56.53
2019-01-27T04:36:09.067Z,61.80
2019-01-27T04:38:40.455Z,64.37
2019-01-27T04:41:11.991Z,61.07
2019-01-27T04:43:43.030Z,60.47
2019-01-27T04:46:14.235Z,62.47
2019-01-27T04:48:46.491Z,61.43
2019-01-27T04:51:17.617Z,59.10
2019-01-27T04:53:48.875Z,59.30
2019-01-27T04:56:20.253Z,58.90
2019-01-27T04:58:51.895Z,62.23
2019-01-27T05:01:23.301Z,57.23
2019-01-27T05:03:59.763Z,59.40
2019-01-27T05:06:31.180Z,55.37
2019-01-27T05:09:02.343Z,53.83
2019-01-27T05:11:34.866Z,58.97
2019-01-27T05:14:06.286Z,58.33
2019-01-27T05:16:37.545Z,57.30
2019-01-27T05:19:10.025Z,53.53
2019-01-27T05:21:41.277Z,57.83
2019-01-27T05:24:13.427Z,55.37
2019-01-27T05:26:46.272Z,57.10
2019-01-27T05:29:18.274Z,54.10
2019-01-27T05:31:53.802Z,57.47
2019-01-27T05:34:24.882Z,55.50
2019-01-27T05:36:57.329Z,57.73
2019-01-27T05:39:28.511Z,54.00
2019-01-27T05:41:59.516Z,53.23
2019-01-27T05:44:32.427Z,50.93
2019-01-27T05:47:05.316Z,49.80
2019-01-27T05:49:37.996Z,50.17
2019-01-27T05:52:09.228Z,49.73
2019-01-27T05:54:40.359Z,48.33
2019-01-27T05:57:11.525Z,48.27
2019-01-27T05:59:42.835Z,49.40
2019-01-27T06:02:13.865Z,49.20
2019-01-27T06:04:45.785Z,49.93
2019-01-27T06:07:17.324Z,49.60
2019-01-27T06:09:48.519Z,47.57
2019-01-27T06:12:20.340Z,47.83
2019-01-27T06:14:51.992Z,50.60
2019-01-27T06:17:23.727Z,47.70
2019-01-27T06:19:56.333Z,48.00
2019-01-27T06:22:27.511Z,49.23
2019-01-27T06:24:59.269Z,45.93
2019-01-27T06:27:31.375Z,45.30
2019-01-27T06:30:02.770Z,46.07
2019-01-27T06:32:42.486Z,51.03
2019-01-27T06:35:13.696Z,48.53
2019-01-27T06:37:45.253Z,48.47
2019-01-27T06:40:18.743Z,45.87
2019-01-27T06:42:49.906Z,45.23
2019-01-27T06:45:21.263Z,46.80
2019-01-27T06:47:52.419Z,44.80
2019-01-27T06:50:23.688Z,45.63
2019-01-27T06:52:54.772Z,47.20
2019-01-27T06:55:26.196Z,46.60
2019-01-27T06:57:59.083Z,46.37
2019-01-27T07:00:52.216Z,44.33
2019-01-27T07:03:42.358Z,48.97
2019-01-27T07:06:32.030Z,45.47
2019-01-27T07:09:27.998Z,47.93
2019-01-27T07:12:18.047Z,46.67
2019-01-27T07:15:02.616Z,45.93
2019-01-27T07:18:02.880Z,43.97
2019-01-27T07:20:42.059Z,46.37
2019-01-27T07:23:24.908Z,45.07
2019-01-27T07:26:17.856Z,43.60
2019-01-27T07:29:06.986Z,41.33
2019-01-27T07:31:57.760Z,41.13
2019-01-27T07:34:47.214Z,43.13
2019-01-27T07:37:34.570Z,45.03
2019-01-27T07:40:22.161Z,44.20
2019-01-27T07:43:05.129Z,45.33
2019-01-27T07:45:47.106Z,47.30
2019-01-27T07:48:37.866Z,46.17
2019-01-27T07:51:38.896Z,45.43
2019-01-27T07:54:47.179Z,44.67
2019-01-27T07:57:35.740Z,45.03
2019-01-27T08:00:22.316Z,43.33
2019-01-27T08:03:17.921Z,41.67
2019-01-27T08:06:11.723Z,37.47
2019-01-27T08:08:57.747Z,39.23
2019-01-27T08:11:51.834Z,37.10
2019-01-27T08:14:54.104Z,39.37
2019-01-27T08:17:38.053Z,40.70
2019-01-27T08:20:29.297Z,39.00
2019-01-27T08:23:19.413Z,38.23
2019-01-27T08:26:09.623Z,37.17
2019-01-27T08:29:11.655Z,39.63
2019-01-27T08:31:53.428Z,38.87
2019-01-27T08:34:37.027Z,35.33
2019-01-27T08:37:35.053Z,36.63
2019-01-27T08:40:30.910Z,35.83
2019-01-27T08:43:18.281Z,32.20
2019-01-27T08:45:54.271Z,33.20
2019-01-27T08:48:25.405Z,32.63
2019-01-27T08:50:58.247Z,33.43
2019-01-27T08:53:29.710Z,34.43
2019-01-27T08:56:00.788Z,36.47
2019-01-27T08:58:32.036Z,37.10
2019-01-27T09:01:20.169Z,35.30
2019-01-27T09:04:12.941Z,35.80
2019-01-27T09:06:55.116Z,37.87
2019-01-27T09:09:52.822Z,33.57
2019-01-27T09:12:42.864Z,30.93
2019-01-27T09:15:51.770Z,31.00
2019-01-27T09:18:27.823Z,30.03
2019-01-27T09:21:20.832Z,29.17
2019-01-27T09:24:09.448Z,28.50
2019-01-27T09:26:48.966Z,28.07
2019-01-27T09:29:40.453Z,27.43
2019-01-27T09:32:33.538Z,28.00
2019-01-27T09:35:15.048Z,28.13
2019-01-27T09:38:01.813Z,28.43
2019-01-27T09:40:47.891Z,28.97
2019-01-27T09:43:39.677Z,28.43
2019-01-27T09:46:25.391Z,29.53
2019-01-27T09:49:01.043Z,30.63
2019-01-27T09:52:00.117Z,33.40
2019-01-27T09:54:42.282Z,32.57
2019-01-27T09:57:31.388Z,32.90
2019-01-27T10:00:10.168Z,32.63
2019-01-27T10:02:51.797Z,31.97
2019-01-27T10:05:27.563Z,31.47
2019-01-27T10:08:25.035Z,29.90
2019-01-27T10:11:18.819Z,27.83
2019-01-27T10:14:18.282Z,27.80
2019-01-27T10:17:00.923Z,27.57
2019-01-27T10:19:51.014Z,29.10
2019-01-27T10:22:39.625Z,27.47
2019-01-27T10:25:49.101Z,27.10
2019-01-27T10:28:45.106Z,25.13
2019-01-27T10:31:41.256Z,24.90
2019-01-27T10:34:22.516Z,24.30
2019-01-27T10:37:01.961Z,23.40
2019-01-27T10:39:52.068Z,22.47
2019-01-27T10:42:36.363Z,21.13
2019-01-27T10:45:18.783Z,22.57
2019-01-27T10:48:15.219Z,21.97
2019-01-27T10:51:08.762Z,23.50
2019-01-27T10:54:03.374Z,28.70
2019-01-27T10:56:56.633Z,29.30
2019-01-27T11:00:06.272Z,28.53
2019-01-27T11:02:57.349Z,27.80
2019-01-27T11:05:53.415Z,27.87
2019-01-27T11:08:44.182Z,28.00
2019-01-27T11:11:35.306Z,28.17
2019-01-27T11:14:28.289Z,28.33
2019-01-27T11:17:25.032Z,28.60
2019-01-27T11:20:12.782Z,28.43
2019-01-27T11:23:12.379Z,28.83
2019-01-27T11:26:05.802Z,27.40
2019-01-27T11:29:11.859Z,28.60
2019-01-27T11:32:08.014Z,30.50
2019-01-27T11:34:55.728Z,30.47
2019-01-27T11:37:57.930Z,32.17
2019-01-27T11:40:52.236Z,32.27
2019-01-27T11:43:48.166Z,31.47
2019-01-27T11:46:24.685Z,35.10
2019-01-27T11:49:10.731Z,34.60
2019-01-27T11:51:46.245Z,33.87
2019-01-27T11:54:17.560Z,31.10
2019-01-27T11:56:48.880Z,30.20
2019-01-27T11:59:20.206Z,31.17
2019-01-27T12:01:52.076Z,30.33
2019-01-27T12:04:23.383Z,31.13
2019-01-27T12:06:54.728Z,28.53
2019-01-27T12:09:25.963Z,28.47
2019-01-27T12:11:57.366Z,27.37
2019-01-27T12:14:29.609Z,27.83
2019-01-27T12:17:00.656Z,28.40
2019-01-27T12:19:31.854Z,28.47
2019-01-27T12:22:05.495Z,30.43
2019-01-27T12:24:37.604Z,31.57
2019-01-27T12:27:09.095Z,33.07
2019-01-27T12:29:40.809Z,32.70
2019-01-27T12:32:12.864Z,33.70
2019-01-27T12:34:43.882Z,32.30
2019-01-27T12:37:14.864Z,31.83
2019-01-27T12:39:48.190Z,31.77
2019-01-27T12:42:19.728Z,31.77
2019-01-27T12:44:51.073Z,30.53
2019-01-27T12:47:22.721Z,28.27
2019-01-27T12:49:53.680Z,28.97
2019-01-27T12:52:24.762Z,24.60
2019-01-27T12:54:55.997Z,25.27
2019-01-27T12:57:27.460Z,25.90
2019-01-27T12:59:58.877Z,28.10
2019-01-27T13:02:30.073Z,27.17
2019-01-27T13:05:02.203Z,27.67
2019-01-27T13:07:33.450Z,28.30
2019-01-27T13:10:06.203Z,26.93
2019-01-27T13:12:37.228Z,27.33
2019-01-27T13:15:11.636Z,26.67
2019-01-27T13:17:42.644Z,26.27
2019-01-27T13:20:16.463Z,26.43
2019-01-27T13:22:49.646Z,27.13
2019-01-27T13:25:21.174Z,28.10
2019-01-27T13:27:52.702Z,29.57
2019-01-27T13:30:24.866Z,28.00
2019-01-27T13:32:56.296Z,29.33
2019-01-27T13:35:27.822Z,27.60
2019-01-27T13:37:59.625Z,26.23
2019-01-27T13:40:31.260Z,26.10
2019-01-27T13:43:02.247Z,28.77
2019-01-27T13:45:33.870Z,31.90
2019-01-27T13:48:05.213Z,31.80
2019-01-27T13:50:37.269Z,31.63
2019-01-27T13:53:10.282Z,31.40
2019-01-27T13:55:43.356Z,30.03
2019-01-27T13:58:14.490Z,27.70
2019-01-27T14:00:45.831Z,27.47
2019-01-27T14:03:17.429Z,25.87
2019-01-27T14:05:50.046Z,25.37
2019-01-27T14:08:21.221Z,24.50
2019-01-27T14:10:52.460Z,24.13
2019-01-27T14:13:25.400Z,24.33
2019-01-27T14:15:58.326Z,22.90
2019-01-27T14:18:29.421Z,24.40
2019-01-27T14:21:00.525Z,26.17
2019-01-27T14:23:31.555Z,25.87
2019-01-27T14:26:02.779Z,26.77
2019-01-27T14:28:34.759Z,26.77
2019-01-27T14:31:07.115Z,27.10
2019-01-27T14:33:38.636Z,28.00
2019-01-27T14:36:11.529Z,28.33
2019-01-27T14:38:42.855Z,29.87
2019-01-27T14:41:14.157Z,30.67
2019-01-27T14:43:45.312Z,31.50
2019-01-27T14:46:16.444Z,30.03
2019-01-27T14:48:47.872Z,28.10
2019-01-27T14:51:20.041Z,26.23
2019-01-27T14:53:52.924Z,24.50
2019-01-27T14:56:24.153Z,26.60
2019-01-27T14:58:55.612Z,25.43
2019-01-27T15:01:27.524Z,26.30
2019-01-27T15:03:58.811Z,25.70
2019-01-27T15:06:30.451Z,26.57
2019-01-27T15:09:03.331Z,25.47
2019-01-27T15:11:34.563Z,26.63
2019-01-27T15:14:06.765Z,26.40
2019-01-27T15:16:37.960Z,28.13
2019-01-27T15:19:08.963Z,28.30
2019-01-27T15:21:40.254Z,28.13
2019-01-27T15:24:11.435Z,29.03
2019-01-27T15:26:43.587Z,29.27
2019-01-27T15:29:15.067Z,29.33
2019-01-27T15:31:46.768Z,30.77
2019-01-27T15:34:18.961Z,30.67
2019-01-27T15:36:50.970Z,30.70
2019-01-27T15:39:22.288Z,30.23
2019-01-27T15:41:54.149Z,29.07
2019-01-27T15:44:25.700Z,28.70
2019-01-27T15:46:56.804Z,29.30
2019-01-27T15:49:28.206Z,27.33
2019-01-27T15:55:37.404Z,26.43
2019-01-27T15:58:08.608Z,27.13
2019-01-27T16:00:39.647Z,27.20
2019-01-27T16:03:10.805Z,27.67
2019-01-27T16:05:41.828Z,27.90
2019-01-27T16:08:13.408Z,27.60
2019-01-27T16:10:44.732Z,28.17
2019-01-27T16:13:16.834Z,27.90
2019-01-27T16:15:47.934Z,28.57
2019-01-27T16:18:19.046Z,27.50
2019-01-27T16:20:50.256Z,29.20
2019-01-27T16:23:40.480Z,28.63
2019-01-27T16:26:11.424Z,28.42
2019-01-27T16:28:42.693Z,29.77
2019-01-27T16:31:38.734Z,29.10
2019-01-27T16:34:28.682Z,32.80
2019-01-27T16:36:59.846Z,34.55
2019-01-27T16:39:31.189Z,33.13
2019-01-27T16:42:02.791Z,32.03
2019-01-27T16:44:34.643Z,33.57
2019-01-27T16:47:05.882Z,32.13
2019-01-27T16:49:37.138Z,34.93
2019-01-27T16:52:08.112Z,38.40
2019-01-27T16:54:39.253Z,39.90
2019-01-27T16:57:10.387Z,39.78
2019-01-27T16:59:41.418Z,39.83
2019-01-27T17:02:12.435Z,39.93
2019-01-27T17:04:43.790Z,39.30
2019-01-27T17:07:14.980Z,38.05
2019-01-27T17:09:46.129Z,37.67
2019-01-27T17:12:17.188Z,37.60
2019-01-27T17:14:48.346Z,36.67
2019-01-27T17:17:19.750Z,36.28
2019-01-27T17:19:50.837Z,36.83
2019-01-27T17:22:23.467Z,37.38
2019-01-27T17:24:55.082Z,36.07
2019-01-27T17:27:26.329Z,37.60
2019-01-27T17:29:57.458Z,36.10
2019-01-27T17:32:28.575Z,38.57
2019-01-27T17:34:59.606Z,39.67
2019-01-27T17:37:30.840Z,40.90
2019-01-27T17:40:01.874Z,43.63
2019-01-27T17:42:32.949Z,43.73
2019-01-27T17:45:04.446Z,41.87
2019-01-27T17:47:35.425Z,42.43
2019-01-27T17:50:07.031Z,41.43
2019-01-27T17:52:38.112Z,43.13
2019-01-27T17:55:10.444Z,45.80
2019-01-27T17:57:53.400Z,42.55
2019-01-27T18:00:43.259Z,39.83
2019-01-27T18:03:36.222Z,43.20
2019-01-27T18:06:17.166Z,41.03
2019-01-27T18:08:55.494Z,43.37
2019-01-27T18:11:35.071Z,44.03
2019-01-27T18:14:16.816Z,42.83
2019-01-27T18:16:48.038Z,44.03
2019-01-27T18:19:19.530Z,42.65
2019-01-27T18:21:51.085Z,42.13
2019-01-27T18:24:22.106Z,42.70
2019-01-27T18:26:53.171Z,42.30
2019-01-27T18:29:24.274Z,43.43
2019-01-27T18:31:56.296Z,44.07
2019-01-27T18:34:28.458Z,43.90
2019-01-27T18:36:59.547Z,43.07
2019-01-27T18:39:30.613Z,42.80
2019-01-27T18:42:01.692Z,43.07
2019-01-27T18:44:32.958Z,44.90
2019-01-27T18:47:04.331Z,44.67
2019-01-27T18:49:35.983Z,45.47
2019-01-27T18:52:07.395Z,45.10
2019-01-27T18:54:56.224Z,45.00
2019-01-27T18:57:37.074Z,44.50
2019-01-27T19:00:25.804Z,43.27
2019-01-27T19:03:20.659Z,45.17
2019-01-27T19:06:13.537Z,44.27
2019-01-27T19:09:02.585Z,46.90
2019-01-27T19:11:59.749Z,45.50
2019-01-27T19:14:56.033Z,46.17
2019-01-27T19:17:40.351Z,47.33
2019-01-27T19:20:20.419Z,49.10
2019-01-27T19:23:10.390Z,48.20
2019-01-27T19:25:59.281Z,47.63
2019-01-27T19:28:49.400Z,47.97
2019-01-27T19:31:26.760Z,48.97
2019-01-27T19:34:17.704Z,46.20
2019-01-27T19:37:00.071Z,49.90
2019-01-27T19:39:41.035Z,50.47
2019-01-27T19:42:30.462Z,49.27
2019-01-27T19:45:20.577Z,51.87
2019-01-27T19:48:00.447Z,56.57
2019-01-27T19:50:49.776Z,53.73
2019-01-27T19:53:32.210Z,55.63
2019-01-27T19:56:21.113Z,57.30
2019-01-27T19:59:14.339Z,58.13
2019-01-27T20:02:03.335Z,62.30
2019-01-27T20:04:50.926Z,60.33
2019-01-27T20:07:36.264Z,58.33
2019-01-27T20:10:26.490Z,61.40
2019-01-27T20:13:32.050Z,60.23
2019-01-27T20:16:22.990Z,59.90
2019-01-27T20:19:13.119Z,60.00
2019-01-27T20:21:55.832Z,58.47
2019-01-27T20:24:58.224Z,57.67
2019-01-27T20:27:48.264Z,55.43
2019-01-27T20:30:50.144Z,60.03
2019-01-27T20:33:37.027Z,62.05
2019-01-27T20:36:25.839Z,60.70
2019-01-27T20:39:06.325Z,63.60
2019-01-27T20:41:59.385Z,63.67
2019-01-27T20:45:04.274Z,66.33
2019-01-27T20:47:57.084Z,72.53
2019-01-27T20:50:56.205Z,68.80
2019-01-27T20:53:47.775Z,73.47
2019-01-27T20:56:35.221Z,79.72
2019-01-27T20:59:22.214Z,73.90
2019-01-27T21:01:59.477Z,71.27
2019-01-27T21:04:56.587Z,75.20
2019-01-27T21:07:34.185Z,76.43
2019-01-27T21:10:28.427Z,80.90
2019-01-27T21:13:27.697Z,72.10
2019-01-27T21:16:17.837Z,66.13
2019-01-27T21:18:53.732Z,63.00
2019-01-27T21:21:25.085Z,64.03
2019-01-27T21:23:56.296Z,63.33
2019-01-27T21:26:27.420Z,69.37
2019-01-27T21:28:58.499Z,63.03
2019-01-27T21:31:29.652Z,63.17
2019-01-27T21:34:00.798Z,72.30
2019-01-27T21:36:33.121Z,71.97
2019-01-27T21:39:06.613Z,66.17
2019-01-27T21:41:38.345Z,69.37
2019-01-27T21:44:09.938Z,68.07
2019-01-27T21:46:41.108Z,66.20
2019-01-27T21:49:12.215Z,66.47
2019-01-27T21:51:43.562Z,67.43
2019-01-27T21:54:14.775Z,64.37
2019-01-27T21:56:46.123Z,65.17
2019-01-27T21:59:17.511Z,63.70
2019-01-27T22:01:48.827Z,67.27
2019-01-27T22:04:19.995Z,65.50
2019-01-27T22:06:51.078Z,67.03
2019-01-27T22:09:22.217Z,68.07
2019-01-27T22:11:53.695Z,68.83
2019-01-27T22:14:26.518Z,71.33
2019-01-27T22:16:57.933Z,69.70
2019-01-27T22:19:29.139Z,69.70
2019-01-27T22:22:00.219Z,71.40
2019-01-27T22:24:31.451Z,68.93
2019-01-27T22:27:02.877Z,67.43
2019-01-27T22:29:34.128Z,67.63
2019-01-27T22:32:06.326Z,68.47
2019-01-27T22:34:37.937Z,66.50
2019-01-27T22:37:09.439Z,70.70
2019-01-27T22:39:40.602Z,67.57
2019-01-27T22:42:12.165Z,66.55
2019-01-27T22:44:43.415Z,68.03
2019-01-27T22:47:14.518Z,66.87
2019-01-27T22:49:45.789Z,70.20
2019-01-27T22:52:16.952Z,66.37
2019-01-27T22:54:48.128Z,66.30
2019-01-27T22:57:19.541Z,65.00
2019-01-27T22:59:50.598Z,66.27
2019-01-27T23:02:21.865Z,66.77
2019-01-27T23:04:52.993Z,67.93
2019-01-27T23:07:24.058Z,65.37
2019-01-27T23:09:55.776Z,66.57
2019-01-27T23:12:27.728Z,61.33
2019-01-27T23:14:59.032Z,60.77
2019-01-27T23:17:30.665Z,63.97
2019-01-27T23:20:01.972Z,61.83
2019-01-27T23:22:33.137Z,63.33
2019-01-27T23:25:04.469Z,68.00
2019-01-27T23:27:35.982Z,67.43
2019-01-27T23:30:07.496Z,68.80
2019-01-27T23:32:38.982Z,69.15
2019-01-27T23:35:11.372Z,67.55
2019-01-27T23:37:43.482Z,67.00
2019-01-27T23:40:14.977Z,68.37
2019-01-27T23:42:46.075Z,63.93
2019-01-27T23:45:17.546Z,65.22
2019-01-27T23:47:48.686Z,64.57
2019-01-27T23:50:19.818Z,63.90
2019-01-27T23:52:51.986Z,63.47
2019-01-27T23:55:23.096Z,61.13
2019-01-27T23:57:54.364Z,56.70
